Terminal Aerodrome Forecast
Issued by NWS Albuquerque, NM

Home | Current Version | Previous Version | Text Only | Print | Product List | Glossary On
Versions: 1 2 3 4 5 6 7 8 9 10 11 12
000
FTUS45 KABQ 231100
TAFABQ
TAF
KABQ 231128Z 2312/2412 29012G20KT P6SM SCT120
     FM231700 32021G30KT P6SM SCT100
     FM232000 32028G37KT P6SM SCT120
     FM240100 34015KT P6SM FEW120
     FM240500 34009KT P6SM SKC=

USA.gov is the U.S. government's official web portal to all federal, state and local government web resources and services.